Time;durP1;ratioP1;P1;durP2;ratioP2;P2;SDS_P1;SDS_P2;PMS_P1;PMS_P2;Temp;Humidity;BMP_temperature;BMP_pressure;BME280_temperature;BME280_humidity;BME280_pressure;Samples;Min_cycle;Max_cycle;Signal;HPM_P1;HPM_P2
2021/03/28 00:00:55;;;;;;;10.75;1.40;;;29.10;11.90;;;;;;5110840;27;20436;-50
2021/03/28 00:03:34;;;;;;;3.85;1.02;;;29.20;12.60;;;;;;5115638;27;20075;-53
2021/03/28 00:06:42;;;;;;;8.98;1.23;;;28.90;11.80;;;;;;5114894;27;20122;-51
2021/03/28 00:09:22;;;;;;;6.82;1.00;;;28.90;11.90;;;;;;5112233;27;20078;-54
2021/03/28 00:12:01;;;;;;;8.15;1.10;;;28.90;12.40;;;;;;5108800;27;20199;-52
2021/03/28 00:15:08;;;;;;;7.43;1.00;;;29.10;12.30;;;;;;5116396;27;20071;-61
2021/03/28 00:18:06;;;;;;;13.75;1.15;;;29.10;11.40;;;;;;5093143;27;20596;-55
2021/03/28 00:20:38;;;;;;;3.53;0.70;;;28.90;12.50;;;;;;5109535;27;20098;-51
2021/03/28 00:23:13;;;;;;;12.32;1.15;;;28.80;12.10;;;;;;5110958;27;20087;-52
2021/03/28 00:25:56;;;;;;;6.85;1.48;;;28.70;12.30;;;;;;5110044;27;20567;-53
2021/03/28 00:28:50;;;;;;;16.27;1.00;;;28.50;13.10;;;;;;5095528;27;20148;-51
2021/03/28 00:31:32;;;;;;;8.48;1.00;;;28.60;13.80;;;;;;5113084;27;20085;-51
2021/03/28 00:34:36;;;;;;;5.05;0.90;;;28.40;12.90;;;;;;5094613;27;20076;-54
2021/03/28 00:37:34;;;;;;;6.85;1.38;;;28.50;13.00;;;;;;5111442;27;20091;-51
2021/03/28 00:40:11;;;;;;;2.55;0.80;;;28.40;13.10;;;;;;5111812;27;20084;-54
2021/03/28 00:42:47;;;;;;;2.42;0.60;;;28.60;13.10;;;;;;5111733;27;20076;-53
2021/03/28 00:45:14;;;;;;;6.07;0.90;;;28.70;13.10;;;;;;5106456;27;20615;-53
2021/03/28 00:47:47;;;;;;;2.25;0.70;;;28.60;12.40;;;;;;5110816;27;20573;-53
2021/03/28 00:50:33;;;;;;;1.33;0.70;;;28.40;12.80;;;;;;5110811;27;20147;-50
2021/03/28 00:53:06;;;;;;;4.03;1.02;;;28.20;13.20;;;;;;5113427;27;20064;-51
2021/03/28 00:55:40;;;;;;;4.43;1.50;;;28.00;13.30;;;;;;5112687;27;20063;-56
2021/03/28 00:58:09;;;;;;;2.35;0.73;;;28.00;13.40;;;;;;5115111;27;20098;-54
2021/03/28 01:00:39;;;;;;;7.63;1.15;;;28.00;13.10;;;;;;5095243;27;20069;-51
2021/03/28 01:03:45;;;;;;;3.58;0.80;;;27.80;13.00;;;;;;5110419;27;20581;-53
2021/03/28 01:06:15;;;;;;;6.45;1.23;;;27.70;12.80;;;;;;5111576;27;20127;-52
2021/03/28 01:08:58;;;;;;;2.45;0.90;;;27.60;12.90;;;;;;5113473;27;20500;-55
2021/03/28 01:12:05;;;;;;;2.33;0.82;;;27.50;12.80;;;;;;5116654;27;20543;-53
2021/03/28 01:14:48;;;;;;;5.65;0.90;;;27.40;13.30;;;;;;5104756;28;20537;-55
2021/03/28 01:17:26;;;;;;;2.83;1.13;;;27.50;13.20;;;;;;5110184;28;20536;-50
2021/03/28 01:20:22;;;;;;;3.85;1.20;;;27.20;13.50;;;;;;5111988;28;20100;-50
2021/03/28 01:23:05;;;;;;;7.60;1.17;;;27.00;13.70;;;;;;5098655;28;20126;-55
2021/03/28 01:25:56;;;;;;;3.47;1.83;;;26.70;13.90;;;;;;5105251;28;20076;-52
2021/03/28 01:28:41;;;;;;;4.47;2.45;;;26.40;14.20;;;;;;5109300;28;20096;-52
2021/03/28 01:31:32;;;;;;;1.52;0.90;;;26.20;14.40;;;;;;5111150;28;20121;-51
2021/03/28 01:34:09;;;;;;;8.10;1.25;;;26.00;14.40;;;;;;5107747;28;20155;-53
2021/03/28 01:36:44;;;;;;;4.63;1.10;;;25.90;14.70;;;;;;5116080;27;20064;-52
2021/03/28 01:39:36;;;;;;;8.90;1.70;;;25.80;14.70;;;;;;5113777;27;20472;-52
2021/03/28 01:42:48;;;;;;;4.38;1.20;;;25.70;14.90;;;;;;5115111;27;20100;-50
2021/03/28 01:45:34;;;;;;;5.18;1.13;;;25.60;15.00;;;;;;5027156;28;20109;-53
2021/03/28 01:48:25;;;;;;;6.40;0.80;;;25.50;15.00;;;;;;5110073;27;20108;-54
2021/03/28 01:50:58;;;;;;;6.38;1.48;;;25.30;15.20;;;;;;5115160;27;20540;-51
2021/03/28 01:53:52;;;;;;;9.48;2.50;;;25.20;15.40;;;;;;5112987;28;20064;-52
2021/03/28 01:56:18;;;;;;;5.60;2.35;;;25.00;15.50;;;;;;5114100;27;20094;-52
2021/03/28 01:58:59;;;;;;;5.20;2.30;;;24.90;15.40;;;;;;5115623;27;20079;-49
2021/03/28 02:01:36;;;;;;;5.82;2.10;;;24.90;15.40;;;;;;5096468;28;20079;-50
2021/03/28 02:04:30;;;;;;;8.57;2.60;;;24.80;15.40;;;;;;5119568;27;20104;-51
2021/03/28 02:07:23;;;;;;;6.35;2.30;;;24.60;15.60;;;;;;5121833;27;20542;-55
2021/03/28 02:10:11;;;;;;;11.65;2.60;;;24.60;15.70;;;;;;5110726;27;20076;-49
2021/03/28 02:13:13;;;;;;;11.18;3.30;;;24.50;15.80;;;;;;5116140;27;20108;-50
2021/03/28 02:15:50;;;;;;;15.10;4.68;;;24.40;16.10;;;;;;5116516;27;20084;-52
2021/03/28 02:18:24;;;;;;;17.02;5.00;;;24.30;16.10;;;;;;5120844;27;20652;-56
2021/03/28 02:21:03;;;;;;;14.50;5.57;;;24.20;17.00;;;;;;5116973;27;20096;-49
2021/03/28 02:23:57;;;;;;;50.13;35.35;;;24.10;16.60;;;;;;5117967;27;20546;-51
2021/03/28 02:27:08;;;;;;;15.02;8.65;;;24.10;16.90;;;;;;5116457;27;20104;-54
2021/03/28 02:30:04;;;;;;;13.18;5.43;;;23.90;17.00;;;;;;5053229;27;20095;-51
2021/03/28 02:32:55;;;;;;;11.05;4.47;;;23.90;17.00;;;;;;5115673;27;20068;-53
2021/03/28 02:35:55;;;;;;;14.02;4.85;;;23.80;17.00;;;;;;5114352;27;20076;-54
2021/03/28 02:38:52;;;;;;;18.95;6.13;;;23.70;17.20;;;;;;5114975;27;20088;-50
2021/03/28 02:41:37;;;;;;;36.63;7.78;;;23.60;17.20;;;;;;5111331;27;20122;-56
2021/03/28 02:44:40;;;;;;;23.58;7.68;;;23.50;17.30;;;;;;5114352;27;20129;-52
2021/03/28 02:47:45;;;;;;;19.10;7.80;;;23.40;17.60;;;;;;5112362;27;20099;-49
2021/03/28 02:50:44;;;;;;;26.90;10.13;;;23.30;17.90;;;;;;5114097;27;20164;-51
2021/03/28 02:53:34;;;;;;;31.30;9.93;;;23.10;18.10;;;;;;5110567;27;20151;-52
2021/03/28 02:56:21;;;;;;;34.35;9.82;;;23.00;18.30;;;;;;5117352;27;20153;-53
2021/03/28 02:59:12;;;;;;;30.52;8.93;;;22.90;18.30;;;;;;5109568;27;20159;-52
2021/03/28 03:02:06;;;;;;;39.58;9.15;;;22.90;18.40;;;;;;5112601;27;20076;-54
2021/03/28 03:04:48;;;;;;;33.15;7.93;;;22.80;18.90;;;;;;5115272;27;20092;-53
2021/03/28 03:07:53;;;;;;;22.23;7.57;;;22.70;18.80;;;;;;5115743;27;20186;-54
2021/03/28 03:10:26;;;;;;;40.83;12.30;;;22.50;19.10;;;;;;5116769;27;20475;-52
2021/03/28 03:13:01;;;;;;;31.40;17.23;;;22.40;19.50;;;;;;5117685;27;20156;-54
2021/03/28 03:15:31;;;;;;;47.58;25.38;;;22.30;19.90;;;;;;5112620;27;20090;-51
2021/03/28 03:18:07;;;;;;;42.20;23.58;;;22.20;20.50;;;;;;5111747;27;20419;-53
2021/03/28 03:20:58;;;;;;;36.45;17.70;;;22.10;20.60;;;;;;5094559;27;20072;-55
2021/03/28 03:23:49;;;;;;;37.97;12.82;;;21.90;20.80;;;;;;5112884;27;20075;-51
2021/03/28 03:26:22;;;;;;;30.15;9.90;;;21.80;21.10;;;;;;5114225;27;20096;-51
2021/03/28 03:29:21;;;;;;;28.05;7.82;;;21.70;21.30;;;;;;5111335;27;20069;-55
2021/03/28 03:32:06;;;;;;;28.15;7.57;;;21.50;21.40;;;;;;5115499;27;20424;-54
2021/03/28 03:34:42;;;;;;;41.90;7.60;;;21.50;21.50;;;;;;5114814;27;20068;-53
2021/03/28 03:37:23;;;;;;;40.88;7.07;;;21.40;21.70;;;;;;5111466;27;20120;-56
2021/03/28 03:40:20;;;;;;;35.67;7.18;;;21.30;21.90;;;;;;5120647;27;20072;-52
2021/03/28 03:43:05;;;;;;;37.63;7.22;;;21.20;21.90;;;;;;5091906;27;20096;-51
2021/03/28 03:45:35;;;;;;;45.45;8.13;;;21.10;22.10;;;;;;5113752;27;20145;-54
2021/03/28 03:48:09;;;;;;;36.63;7.22;;;21.00;22.10;;;;;;5112866;27;20463;-49
2021/03/28 03:50:57;;;;;;;41.38;7.50;;;20.90;22.20;;;;;;5113286;27;20083;-53
2021/03/28 03:53:51;;;;;;;44.08;7.82;;;20.80;22.20;;;;;;5109956;27;20101;-52
2021/03/28 03:56:27;;;;;;;46.75;8.80;;;20.80;22.50;;;;;;5113865;27;20083;-53
2021/03/28 03:59:02;;;;;;;43.45;8.75;;;20.80;22.70;;;;;;5117053;27;20496;-56
2021/03/28 04:02:04;;;;;;;46.85;8.65;;;20.60;22.70;;;;;;5114718;27;20112;-52
2021/03/28 04:04:53;;;;;;;57.78;9.82;;;20.60;22.90;;;;;;5051940;28;20077;-55
2021/03/28 04:07:43;;;;;;;44.60;10.07;;;20.50;23.40;;;;;;5114702;27;20103;-56
2021/03/28 04:10:37;;;;;;;52.47;9.27;;;20.40;23.00;;;;;;5113352;27;20183;-55
2021/03/28 04:13:16;;;;;;;54.00;9.77;;;20.40;23.40;;;;;;5115034;27;20120;-53
2021/03/28 04:15:46;;;;;;;51.10;10.48;;;20.30;23.50;;;;;;5119905;27;20197;-50
2021/03/28 04:18:22;;;;;;;47.72;10.30;;;20.20;23.60;;;;;;5113788;27;20071;-52
2021/03/28 04:21:10;;;;;;;44.47;10.43;;;20.10;23.80;;;;;;5112495;27;20141;-55
2021/03/28 04:23:55;;;;;;;48.38;10.30;;;20.00;24.10;;;;;;5115512;27;20072;-53
2021/03/28 04:26:43;;;;;;;45.20;10.73;;;20.00;24.40;;;;;;5114503;27;20103;-51
2021/03/28 04:29:11;;;;;;;;;;;19.90;24.60;;;;;;5113596;27;20090;-51
2021/03/28 04:31:41;;;;;;;45.17;11.23;;;19.80;24.70;;;;;;5111857;27;20002;-52
2021/03/28 04:34:58;;;;;;;58.08;12.93;;;19.80;24.90;;;;;;5117090;27;20076;-55
2021/03/28 04:37:52;;;;;;;55.33;12.57;;;19.70;24.90;;;;;;5077562;27;20429;-52
2021/03/28 04:40:59;;;;;;;59.88;12.10;;;19.60;25.20;;;;;;5117416;27;20076;-54
2021/03/28 04:44:22;;;;;;;55.60;13.40;;;19.60;25.40;;;;;;5057318;28;20077;-50
2021/03/28 04:47:10;;;;;;;70.30;15.35;;;19.50;25.60;;;;;;5105514;27;20109;-51
2021/03/28 04:49:58;;;;;;;73.47;16.90;;;19.40;25.50;;;;;;5115393;27;20122;-54
2021/03/28 04:53:00;;;;;;;55.97;15.25;;;19.40;25.60;;;;;;5108181;27;20421;-50
2021/03/28 04:55:45;;;;;;;64.63;16.13;;;19.30;25.20;;;;;;5110981;27;20082;-54
2021/03/28 04:58:36;;;;;;;58.22;16.55;;;19.30;25.80;;;;;;5113248;27;20072;-50
2021/03/28 05:01:05;;;;;;;51.53;17.05;;;19.20;26.00;;;;;;5111779;27;20146;-51
2021/03/28 05:03:56;;;;;;;60.75;14.85;;;19.20;26.40;;;;;;5113476;27;20443;-54
2021/03/28 05:06:34;;;;;;;69.93;18.85;;;19.10;26.50;;;;;;5115812;27;20480;-51
2021/03/28 05:09:19;;;;;;;84.60;23.60;;;19.10;26.50;;;;;;5114079;27;20092;-54
2021/03/28 05:12:12;;;;;;;98.88;27.75;;;19.00;26.30;;;;;;5115744;27;20115;-49
2021/03/28 05:15:14;;;;;;;91.88;26.00;;;18.90;26.30;;;;;;5110634;27;20490;-53
2021/03/28 05:18:05;;;;;;;95.05;28.58;;;18.90;26.30;;;;;;5110279;27;20143;-50
2021/03/28 05:20:52;;;;;;;79.60;31.10;;;18.80;26.40;;;;;;5112259;27;20069;-51
2021/03/28 05:23:37;;;;;;;94.30;31.75;;;18.80;26.50;;;;;;5109772;27;20080;-50
2021/03/28 05:26:23;;;;;;;106.90;30.83;;;18.80;26.70;;;;;;5111904;28;20088;-54
2021/03/28 05:28:55;;;;;;;94.93;30.30;;;18.70;26.60;;;;;;5111050;28;20076;-54
2021/03/28 05:32:07;;;;;;;96.93;29.83;;;18.60;26.70;;;;;;5110940;28;20528;-52
2021/03/28 05:34:51;;;;;;;86.97;30.17;;;18.60;26.90;;;;;;5112720;28;20068;-53
2021/03/28 05:37:24;;;;;;;89.18;29.70;;;18.70;27.10;;;;;;5117942;28;20127;-52
2021/03/28 05:40:27;;;;;;;104.90;28.48;;;18.60;27.20;;;;;;5109640;28;20436;-51
2021/03/28 05:43:25;;;;;;;103.97;25.65;;;18.50;27.40;;;;;;5114805;28;20121;-54
2021/03/28 05:45:51;;;;;;;106.27;28.30;;;18.50;27.60;;;;;;5116644;28;20075;-52
2021/03/28 05:48:26;;;;;;;;;;;18.40;27.70;;;;;;5114076;28;20111;-52
2021/03/28 05:50:53;;;;;;;95.45;26.08;;;18.50;27.80;;;;;;5114686;28;20427;-55
2021/03/28 05:53:22;;;;;;;;;;;18.40;28.00;;;;;;5109995;28;20513;-52
2021/03/28 05:56:07;;;;;;;97.13;26.23;;;18.30;28.30;;;;;;5114661;28;19955;-51
2021/03/28 05:59:10;;;;;;;88.78;26.02;;;18.30;28.30;;;;;;5112461;28;20092;-51
2021/03/28 06:01:58;;;;;;;91.30;25.92;;;18.20;28.30;;;;;;5114984;28;20076;-51
2021/03/28 06:04:33;;;;;;;101.80;26.98;;;18.20;28.50;;;;;;5116557;28;20082;-56
2021/03/28 06:07:18;;;;;;;82.55;25.45;;;18.10;28.60;;;;;;5113624;28;20425;-53
2021/03/28 06:10:04;;;;;;;89.90;24.85;;;18.20;28.80;;;;;;5115385;28;20522;-55
2021/03/28 06:13:21;;;;;;;92.82;25.58;;;18.10;28.80;;;;;;5080035;28;20101;-52
2021/03/28 06:16:17;;;;;;;80.40;22.88;;;18.00;28.90;;;;;;5086630;28;20103;-54
2021/03/28 06:18:47;;;;;;;96.35;25.98;;;18.00;29.10;;;;;;5086730;28;20169;-55
2021/03/28 06:21:22;;;;;;;90.30;25.13;;;18.00;29.30;;;;;;5086294;28;20121;-54
2021/03/28 06:23:58;;;;;;;90.25;25.27;;;17.90;29.40;;;;;;5092171;28;20425;-55
2021/03/28 06:26:42;;;;;;;76.38;22.73;;;17.90;29.90;;;;;;5090188;28;20091;-53
2021/03/28 06:29:40;;;;;;;109.35;24.27;;;18.00;30.10;;;;;;5090546;28;20073;-50
2021/03/28 06:32:43;;;;;;;78.13;24.52;;;17.90;30.10;;;;;;5088014;28;20085;-49
2021/03/28 06:35:48;;;;;;;71.15;24.13;;;17.80;30.30;;;;;;5090418;28;20478;-50
2021/03/28 06:38:43;;;;;;;94.50;23.70;;;17.80;30.20;;;;;;5089561;28;20076;-53
2021/03/28 06:41:28;;;;;;;78.25;23.20;;;17.70;30.20;;;;;;5087435;28;20077;-55
2021/03/28 06:44:24;;;;;;;99.93;24.52;;;17.70;30.60;;;;;;5088249;28;20548;-48
2021/03/28 06:47:28;;;;;;;78.50;23.02;;;17.70;30.70;;;;;;5088059;28;20119;-51
2021/03/28 06:50:42;;;;;;;81.35;23.05;;;17.60;30.50;;;;;;5087129;28;20533;-52
2021/03/28 06:53:36;;;;;;;72.95;24.60;;;17.60;30.70;;;;;;5032474;28;20143;-52
2021/03/28 06:56:17;;;;;;;73.43;25.65;;;17.60;31.20;;;;;;5089689;28;20081;-54
2021/03/28 06:59:19;;;;;;;83.47;25.88;;;17.50;31.40;;;;;;5089180;28;20436;-53
2021/03/28 07:02:06;;;;;;;78.75;25.70;;;17.50;31.50;;;;;;5085974;28;20083;-54
2021/03/28 07:05:00;;;;;;;91.05;25.33;;;17.40;31.60;;;;;;5089802;28;20077;-55
2021/03/28 07:07:53;;;;;;;83.90;25.40;;;17.30;31.70;;;;;;5087055;28;20096;-53
2021/03/28 07:10:38;;;;;;;83.00;25.48;;;17.30;32.00;;;;;;5093791;28;20150;-52
2021/03/28 07:13:31;;;;;;;96.45;25.35;;;17.30;32.10;;;;;;5118830;27;20067;-51
2021/03/28 07:16:19;;;;;;;96.72;26.23;;;17.30;33.10;;;;;;5097918;28;20528;-54
2021/03/28 07:19:13;;;;;;;87.78;26.50;;;17.20;32.70;;;;;;5121417;27;20075;-49
2021/03/28 07:22:10;;;;;;;89.65;26.75;;;17.20;32.90;;;;;;5119973;27;20114;-52
2021/03/28 07:25:07;;;;;;;86.28;26.50;;;17.10;32.60;;;;;;5113056;27;20082;-53
2021/03/28 07:28:35;;;;;;;98.32;29.25;;;17.00;32.60;;;;;;5115472;27;20230;-55
2021/03/28 07:31:32;;;;;;;131.25;30.60;;;17.00;32.90;;;;;;5066072;27;20611;-53
2021/03/28 07:34:20;;;;;;;143.13;32.10;;;17.10;32.90;;;;;;5118269;27;20075;-54
2021/03/28 07:37:25;;;;;;;107.55;32.35;;;17.00;32.30;;;;;;5119668;27;20158;-52
2021/03/28 07:40:14;;;;;;;127.40;38.20;;;16.90;32.20;;;;;;5114903;27;20084;-55
2021/03/28 07:43:02;;;;;;;118.75;40.28;;;16.90;32.60;;;;;;5116709;27;20071;-51
2021/03/28 07:45:31;;;;;;;120.68;39.25;;;16.90;33.30;;;;;;5114768;27;20081;-54
2021/03/28 07:48:22;;;;;;;135.15;38.00;;;16.90;33.20;;;;;;5117036;27;20104;-57
2021/03/28 07:51:08;;;;;;;129.80;36.50;;;16.90;33.20;;;;;;5115660;27;20073;-55
2021/03/28 07:54:15;;;;;;;99.32;35.72;;;16.90;33.00;;;;;;5116224;27;20091;-55
2021/03/28 07:57:00;;;;;;;115.95;36.65;;;16.80;32.40;;;;;;5115109;27;20072;-51
2021/03/28 07:59:45;;;;;;;116.82;35.78;;;16.80;32.60;;;;;;5117662;27;20076;-53
2021/03/28 08:02:20;;;;;;;120.82;33.17;;;16.80;33.10;;;;;;5118501;27;20423;-50
2021/03/28 08:04:59;;;;;;;105.30;33.70;;;16.80;32.80;;;;;;5116778;27;20076;-52
2021/03/28 08:07:53;;;;;;;113.20;33.15;;;16.70;32.90;;;;;;5120859;27;20148;-50
2021/03/28 08:10:26;;;;;;;113.43;29.92;;;16.70;32.90;;;;;;5113313;27;20114;-49
2021/03/28 08:13:08;;;;;;;102.78;26.00;;;16.70;33.30;;;;;;5114704;27;20098;-53
2021/03/28 08:16:11;;;;;;;107.30;26.90;;;16.60;33.00;;;;;;5117138;27;20090;-51
2021/03/28 08:19:12;;;;;;;99.45;26.23;;;16.60;32.90;;;;;;5117919;27;20495;-50
2021/03/28 08:22:20;;;;;;;90.13;24.55;;;16.60;32.70;;;;;;5113869;27;20063;-53
2021/03/28 08:25:23;;;;;;;89.13;25.27;;;16.40;32.40;;;;;;5089743;27;20511;-53
2021/03/28 08:28:35;;;;;;;67.82;23.90;;;16.40;32.70;;;;;;5113788;27;20359;-51
2021/03/28 08:31:30;;;;;;;87.75;24.48;;;16.30;32.90;;;;;;5075567;27;20091;-52
2021/03/28 08:34:29;;;;;;;75.50;24.05;;;16.30;33.10;;;;;;5116480;27;20504;-50
2021/03/28 08:37:28;;;;;;;90.38;22.77;;;16.30;33.30;;;;;;5072495;27;20533;-54
2021/03/28 08:40:10;;;;;;;85.90;22.75;;;16.30;33.40;;;;;;5113848;27;20107;-52
2021/03/28 08:43:05;;;;;;;89.13;21.75;;;16.30;33.50;;;;;;5115536;27;20416;-51
2021/03/28 08:46:01;;;;;;;96.38;23.83;;;16.20;33.50;;;;;;5117158;27;20087;-53
2021/03/28 08:48:40;;;;;;;75.82;21.50;;;16.10;33.60;;;;;;5079340;27;20119;-52
2021/03/28 08:51:38;;;;;;;77.03;20.35;;;16.10;33.90;;;;;;5114128;27;20067;-50
2021/03/28 08:54:12;;;;;;;79.53;20.58;;;16.00;34.00;;;;;;5110456;27;20072;-53
2021/03/28 08:56:57;;;;;;;78.07;19.70;;;16.00;34.20;;;;;;5117527;27;20084;-55
2021/03/28 08:59:54;;;;;;;71.13;18.80;;;16.00;34.60;;;;;;5112716;27;20527;-52
2021/03/28 09:02:50;;;;;;;78.88;19.70;;;16.00;34.80;;;;;;5111903;27;20528;-54
2021/03/28 09:05:27;;;;;;;79.32;19.38;;;16.00;35.00;;;;;;5114784;27;20478;-50
2021/03/28 09:08:03;;;;;;;57.58;18.95;;;16.00;34.80;;;;;;5116694;27;20091;-55
2021/03/28 09:10:52;;;;;;;77.55;20.13;;;15.90;34.70;;;;;;5116452;27;20107;-50
2021/03/28 09:13:46;;;;;;;76.38;19.92;;;15.80;34.90;;;;;;5113134;27;20084;-52
2021/03/28 09:16:27;;;;;;;70.80;20.38;;;15.80;35.20;;;;;;5110371;28;20151;-52
2021/03/28 09:19:00;;;;;;;65.65;18.48;;;15.80;35.90;;;;;;5111402;27;20090;-53
2021/03/28 09:21:42;;;;;;;59.28;17.52;;;15.80;35.30;;;;;;5110917;27;20072;-51
2021/03/28 09:24:36;;;;;;;70.18;18.00;;;15.80;35.00;;;;;;5110810;27;20064;-50
2021/03/28 09:27:21;;;;;;;63.67;17.42;;;15.70;35.30;;;;;;5112206;28;20088;-51
2021/03/28 09:30:20;;;;;;;69.20;15.95;;;15.70;35.20;;;;;;5116427;28;20074;-52
2021/03/28 09:33:02;;;;;;;72.85;16.67;;;15.60;35.20;;;;;;5112512;28;20071;-53
2021/03/28 09:36:17;;;;;;;57.83;15.75;;;15.60;35.40;;;;;;5117743;28;20064;-51
2021/03/28 09:39:21;;;;;;;55.72;15.20;;;15.60;35.30;;;;;;5090922;28;20084;-50
2021/03/28 09:42:21;;;;;;;64.63;16.58;;;15.50;34.80;;;;;;5115853;28;20079;-52
2021/03/28 09:45:24;;;;;;;44.42;13.65;;;15.60;35.00;;;;;;5112483;28;20080;-50
2021/03/28 09:47:59;;;;;;;49.05;14.52;;;15.50;34.60;;;;;;5113200;28;20456;-52
2021/03/28 09:50:59;;;;;;;40.95;11.23;;;15.50;34.20;;;;;;5109745;28;20164;-51
2021/03/28 09:53:47;;;;;;;44.10;10.23;;;15.40;33.20;;;;;;5110276;28;20135;-51
2021/03/28 09:56:45;;;;;;;38.78;8.93;;;15.50;32.50;;;;;;5112444;27;20079;-52
2021/03/28 09:59:51;;;;;;;30.17;9.07;;;15.40;31.90;;;;;;5120702;27;20164;-51
2021/03/28 10:02:47;;;;;;;35.42;8.98;;;15.40;32.20;;;;;;5101267;27;20076;-50
2021/03/28 10:05:20;;;;;;;27.25;8.18;;;15.50;31.70;;;;;;5114407;27;20167;-56
2021/03/28 10:08:11;;;;;;;32.67;7.97;;;15.50;31.20;;;;;;5120050;27;20096;-51
2021/03/28 10:10:56;;;;;;;20.73;6.53;;;15.50;30.60;;;;;;5102394;27;20157;-53
2021/03/28 10:13:57;;;;;;;26.13;7.25;;;15.50;29.80;;;;;;5113865;27;20114;-51
2021/03/28 10:16:53;;;;;;;25.38;5.90;;;15.50;29.40;;;;;;5115756;27;20567;-50
2021/03/28 10:19:40;;;;;;;29.58;5.93;;;15.50;28.70;;;;;;5120259;27;20067;-53
2021/03/28 10:22:07;;;;;;;;;;;15.50;28.40;;;;;;5118793;27;20194;-54
2021/03/28 10:24:42;;;;;;;22.27;5.32;;;15.40;28.30;;;;;;5117132;27;19963;-53
2021/03/28 10:27:39;;;;;;;20.05;5.47;;;15.50;28.30;;;;;;5118215;27;20540;-56
2021/03/28 10:30:53;;;;;;;17.23;5.15;;;15.50;28.10;;;;;;5111906;27;20131;-51
2021/03/28 10:33:40;;;;;;;19.75;4.70;;;15.50;27.10;;;;;;5109237;27;20087;-54
2021/03/28 10:36:33;;;;;;;23.58;5.35;;;15.50;27.10;;;;;;5115508;27;20459;-52
2021/03/28 10:39:22;;;;;;;24.95;5.15;;;15.50;27.60;;;;;;5087001;27;20080;-54
2021/03/28 10:42:10;;;;;;;22.27;3.70;;;15.50;28.00;;;;;;5118310;27;20075;-51
2021/03/28 10:45:06;;;;;;;19.00;3.63;;;15.50;27.50;;;;;;5112642;27;20088;-53
2021/03/28 10:47:57;;;;;;;23.17;3.90;;;15.40;27.40;;;;;;5116417;27;20103;-56
2021/03/28 10:50:27;;;;;;;11.55;3.30;;;15.40;27.80;;;;;;5114591;27;20135;-49
2021/03/28 10:53:27;;;;;;;16.92;3.67;;;15.40;28.10;;;;;;5100777;27;20082;-54
2021/03/28 10:56:27;;;;;;;17.52;3.75;;;15.40;28.10;;;;;;5116542;27;20064;-51
2021/03/28 10:59:17;;;;;;;13.38;4.20;;;15.30;28.10;;;;;;5100813;27;20076;-51
2021/03/28 11:02:10;;;;;;;21.30;3.97;;;15.20;28.30;;;;;;5114557;27;20080;-50
2021/03/28 11:05:06;;;;;;;22.27;4.10;;;15.20;28.70;;;;;;5117724;27;20076;-54
2021/03/28 11:07:41;;;;;;;17.95;3.88;;;15.20;29.20;;;;;;5095979;27;20116;-49
2021/03/28 11:10:29;;;;;;;21.70;3.78;;;15.20;29.30;;;;;;5116745;27;20244;-49
2021/03/28 11:13:18;;;;;;;19.58;3.95;;;15.10;29.30;;;;;;5118262;27;20091;-52
2021/03/28 11:16:22;;;;;;;18.30;3.72;;;15.10;29.40;;;;;;5117896;27;20069;-51
2021/03/28 11:19:36;;;;;;;22.75;4.07;;;15.00;29.50;;;;;;5119926;27;20486;-53
2021/03/28 11:22:11;;;;;;;15.40;3.33;;;14.90;29.80;;;;;;5021170;27;20078;-52
2021/03/28 11:24:56;;;;;;;18.30;3.42;;;14.90;29.80;;;;;;5116233;27;20068;-52
2021/03/28 11:27:59;;;;;;;15.15;3.90;;;14.90;29.90;;;;;;5118876;27;20102;-51
2021/03/28 11:30:46;;;;;;;24.20;4.25;;;14.80;29.30;;;;;;5119062;27;20508;-50
2021/03/28 11:33:16;;;;;;;21.38;3.90;;;14.90;29.60;;;;;;5117933;27;20099;-49
2021/03/28 11:36:03;;;;;;;13.77;3.58;;;14.90;29.70;;;;;;5116655;27;20544;-50
2021/03/28 11:38:32;;;;;;;9.10;3.13;;;14.80;29.40;;;;;;5115803;27;20072;-55
2021/03/28 11:41:11;;;;;;;17.88;3.22;;;14.90;29.80;;;;;;5118575;27;20096;-48
2021/03/28 11:43:57;;;;;;;24.65;3.80;;;14.90;30.00;;;;;;5115962;27;20481;-53
2021/03/28 11:46:26;;;;;;;9.80;3.10;;;14.90;29.70;;;;;;5113493;27;20465;-49
2021/03/28 11:48:53;;;;;;;15.82;2.97;;;14.80;29.70;;;;;;5119117;27;20485;-54
2021/03/28 11:51:23;;;;;;;19.60;3.47;;;14.80;29.80;;;;;;5117279;27;20521;-49
2021/03/28 11:54:12;;;;;;;18.52;3.08;;;14.80;30.20;;;;;;5118221;27;20516;-50
2021/03/28 11:56:49;;;;;;;15.93;2.95;;;14.70;30.00;;;;;;5114123;27;20152;-53
2021/03/28 11:59:28;;;;;;;15.32;3.42;;;14.70;29.90;;;;;;5115066;27;20480;-53
2021/03/28 12:02:03;;;;;;;12.90;3.33;;;14.60;30.00;;;;;;5114106;27;20073;-54
2021/03/28 12:04:34;;;;;;;15.82;3.13;;;14.70;30.50;;;;;;5114748;27;20067;-51
2021/03/28 12:07:19;;;;;;;9.50;3.35;;;14.60;30.20;;;;;;5118054;27;20183;-54
2021/03/28 12:10:14;;;;;;;14.75;2.90;;;14.60;30.00;;;;;;5114060;27;20068;-52
2021/03/28 12:12:42;;;;;;;13.93;2.80;;;14.70;30.20;;;;;;5114434;27;20084;-52
2021/03/28 12:15:42;;;;;;;16.88;3.10;;;14.60;30.10;;;;;;5114187;27;20160;-54
2021/03/28 12:18:21;;;;;;;18.25;2.97;;;14.60;30.20;;;;;;5114325;27;20107;-52
2021/03/28 12:21:02;;;;;;;9.38;3.30;;;14.70;30.40;;;;;;5112915;27;20072;-50
2021/03/28 12:23:54;;;;;;;8.18;2.53;;;14.70;30.30;;;;;;5115395;27;20075;-51
2021/03/28 12:26:37;;;;;;;12.10;2.70;;;14.70;29.80;;;;;;5113832;27;20551;-51
2021/03/28 12:29:30;;;;;;;12.73;2.72;;;14.70;29.30;;;;;;5114559;27;20084;-49
2021/03/28 12:31:57;;;;;;;12.30;2.90;;;14.60;29.40;;;;;;5111640;27;20102;-50
2021/03/28 12:34:37;;;;;;;;;;;14.60;29.40;;;;;;5114533;27;20080;-51
2021/03/28 12:37:12;;;;;;;10.05;2.85;;;14.60;29.60;;;;;;5116200;27;19964;-50
2021/03/28 12:40:01;;;;;;;10.20;2.95;;;14.50;29.50;;;;;;5118651;27;20539;-50
2021/03/28 12:42:33;;;;;;;14.98;3.00;;;14.50;29.90;;;;;;5112829;27;20072;-52
2021/03/28 12:45:09;;;;;;;21.52;3.63;;;14.50;30.10;;;;;;5114592;27;20079;-51
2021/03/28 12:47:59;;;;;;;10.13;2.63;;;14.40;30.30;;;;;;5114342;27;20107;-51
2021/03/28 12:50:42;;;;;;;14.95;2.65;;;14.40;30.20;;;;;;5116990;27;20076;-53
2021/03/28 12:53:21;;;;;;;11.88;3.05;;;14.30;30.20;;;;;;5115074;27;20158;-50
2021/03/28 12:55:53;;;;;;;8.32;3.08;;;14.30;30.60;;;;;;5111832;27;20076;-51
2021/03/28 12:58:23;;;;;;;10.70;2.85;;;14.30;31.00;;;;;;5114937;27;20176;-51
2021/03/28 13:01:01;;;;;;;15.35;2.40;;;14.20;30.80;;;;;;5113386;27;20076;-50
2021/03/28 13:03:33;;;;;;;16.48;2.33;;;14.10;31.20;;;;;;5113036;27;20080;-52
2021/03/28 13:05:59;;;;;;;10.93;2.42;;;14.20;31.10;;;;;;5115374;27;20155;-50
2021/03/28 13:08:26;;;;;;;3.67;1.83;;;14.20;30.40;;;;;;5113838;27;20096;-51
2021/03/28 13:11:04;;;;;;;11.43;1.95;;;14.20;30.40;;;;;;5114262;27;20124;-50
2021/03/28 13:13:37;;;;;;;;;;;14.30;30.70;;;;;;5117389;27;20076;-50
2021/03/28 13:16:04;;;;;;;13.95;2.47;;;14.20;30.40;;;;;;5114039;27;19956;-50
2021/03/28 13:18:47;;;;;;;10.73;2.28;;;14.20;30.10;;;;;;5118950;27;20159;-49
2021/03/28 13:21:26;;;;;;;6.55;2.00;;;14.30;30.70;;;;;;5111988;27;20068;-50
2021/03/28 13:24:01;;;;;;;8.85;2.47;;;14.30;31.60;;;;;;5112395;28;20087;-49
2021/03/28 13:26:33;;;;;;;13.85;2.15;;;14.30;31.60;;;;;;5114415;27;20109;-52
2021/03/28 13:29:17;;;;;;;7.18;1.80;;;14.30;32.00;;;;;;5114132;28;20083;-51
2021/03/28 13:31:52;;;;;;;7.28;2.05;;;14.20;31.70;;;;;;5113729;27;20167;-53
2021/03/28 13:34:19;;;;;;;8.43;2.03;;;14.20;32.00;;;;;;5113895;28;20354;-48
2021/03/28 13:37:02;;;;;;;12.68;2.65;;;14.10;32.40;;;;;;5114921;28;20436;-50
2021/03/28 13:39:30;;;;;;;12.52;2.20;;;14.20;32.70;;;;;;5110735;28;20114;-51
2021/03/28 13:41:57;;;;;;;8.77;2.40;;;14.10;32.50;;;;;;5117421;28;20534;-51
2021/03/28 13:44:28;;;;;;;10.25;2.83;;;14.10;32.50;;;;;;5114208;28;20540;-50
2021/03/28 13:47:04;;;;;;;9.77;2.25;;;14.10;32.80;;;;;;5110359;28;20183;-50
2021/03/28 13:49:51;;;;;;;13.40;2.45;;;14.10;32.50;;;;;;5115673;28;20125;-50
2021/03/28 13:52:27;;;;;;;18.25;2.53;;;14.00;32.50;;;;;;5115902;28;20086;-51
2021/03/28 13:55:08;;;;;;;9.90;2.75;;;14.00;32.80;;;;;;5113424;28;20076;-49
2021/03/28 13:57:41;;;;;;;6.50;2.15;;;14.00;32.60;;;;;;5111927;28;20103;-51
2021/03/28 14:00:20;;;;;;;13.63;2.45;;;14.10;32.60;;;;;;5115581;28;20076;-50
2021/03/28 14:02:56;;;;;;;18.48;2.47;;;14.10;33.10;;;;;;5121195;28;20094;-57
2021/03/28 14:05:27;;;;;;;11.13;2.78;;;14.20;33.00;;;;;;5114465;28;20076;-51
2021/03/28 14:07:56;;;;;;;14.38;3.28;;;14.30;33.30;;;;;;5117125;28;20104;-52
2021/03/28 14:10:26;;;;;;;14.32;3.00;;;14.40;33.60;;;;;;5114123;28;20113;-50
2021/03/28 14:13:11;;;;;;;15.70;2.28;;;14.40;33.30;;;;;;5114622;28;20532;-50